createdAt,value
2018-06-16T00:00:13.168Z,91.35
2018-06-16T00:01:13.116Z,91.30
2018-06-16T00:02:13.072Z,91.44
2018-06-16T00:03:13.070Z,91.35
2018-06-16T00:04:12.984Z,91.06
2018-06-16T00:05:12.935Z,91.97
2018-06-16T00:06:12.888Z,91.49
2018-06-16T00:07:12.840Z,91.83
2018-06-16T00:08:12.836Z,91.68
2018-06-16T00:09:12.745Z,91.97
2018-06-16T00:10:12.698Z,91.68
2018-06-16T00:11:12.652Z,91.78
2018-06-16T00:12:12.608Z,92.02
2018-06-16T00:13:12.590Z,92.25
2018-06-16T00:14:12.546Z,92.54
2018-06-16T00:15:12.469Z,92.74
2018-06-16T00:16:12.418Z,92.54
2018-06-16T00:17:12.371Z,92.49
2018-06-16T00:18:12.328Z,92.59
2018-06-16T00:19:12.311Z,92.40
2018-06-16T00:20:12.251Z,93.07
2018-06-16T00:21:12.186Z,92.54
2018-06-16T00:22:12.137Z,91.97
2018-06-16T00:23:12.126Z,92.54
2018-06-16T00:24:12.047Z,92.35
2018-06-16T00:25:11.997Z,93.31
2018-06-16T00:26:11.951Z,92.54
2018-06-16T00:27:11.903Z,92.74
2018-06-16T00:28:11.891Z,92.54
2018-06-16T00:29:11.841Z,92.64
2018-06-16T00:30:11.766Z,93.40
2018-06-16T00:31:11.719Z,93.12
2018-06-16T00:32:11.672Z,93.40
2018-06-16T00:33:11.626Z,93.31
2018-06-16T00:34:11.609Z,92.93
2018-06-16T00:35:11.546Z,93.21
2018-06-16T00:36:11.485Z,93.21
2018-06-16T00:37:11.436Z,93.31
2018-06-16T00:38:11.390Z,93.88
2018-06-16T00:39:11.390Z,94.07
2018-06-16T00:40:11.296Z,93.31
2018-06-16T00:41:11.288Z,93.12
2018-06-16T00:42:11.203Z,93.40
2018-06-16T00:43:11.190Z,94.26
2018-06-16T00:44:11.160Z,93.79
2018-06-16T00:45:11.062Z,94.36
2018-06-16T00:46:11.018Z,93.79
2018-06-16T00:47:10.969Z,93.88
2018-06-16T00:48:10.922Z,94.17
2018-06-16T00:49:10.924Z,94.46
2018-06-16T00:50:10.829Z,94.55
2018-06-16T00:51:10.781Z,95.03
2018-06-16T00:52:10.736Z,94.93
2018-06-16T00:53:10.686Z,94.46
2018-06-16T00:54:10.681Z,94.93
2018-06-16T00:55:10.594Z,94.74
2018-06-16T00:56:10.548Z,95.03
2018-06-16T00:57:10.501Z,94.84
2018-06-16T00:58:10.452Z,94.84
2018-06-16T00:59:10.438Z,95.12
2018-06-16T01:00:10.357Z,94.74
2018-06-16T01:01:10.352Z,94.74
2018-06-16T01:02:10.271Z,94.93
2018-06-16T01:03:10.218Z,94.74
2018-06-16T01:04:10.172Z,94.84
2018-06-16T01:05:10.124Z,94.93
2018-06-16T01:06:10.109Z,95.03
2018-06-16T01:07:10.031Z,94.93
2018-06-16T01:08:10.020Z,94.84
2018-06-16T01:09:09.937Z,94.46
2018-06-16T01:10:09.890Z,94.46
2018-06-16T01:11:09.847Z,95.03
2018-06-16T01:12:09.799Z,94.74
2018-06-16T01:13:09.780Z,94.93
2018-06-16T01:14:09.701Z,94.93
2018-06-16T01:15:09.654Z,94.46
2018-06-16T01:16:09.610Z,94.55
2018-06-16T01:17:09.561Z,94.46
2018-06-16T01:18:09.553Z,93.88
2018-06-16T01:19:09.468Z,94.07
2018-06-16T01:20:09.422Z,93.69
2018-06-16T01:21:09.375Z,94.07
2018-06-16T01:22:09.356Z,93.60
2018-06-16T01:23:09.279Z,93.60
2018-06-16T01:24:09.234Z,93.07
2018-06-16T01:25:09.218Z,93.55
2018-06-16T01:26:09.138Z,92.78
2018-06-16T01:27:09.097Z,92.78
2018-06-16T01:28:09.052Z,93.35
2018-06-16T01:29:08.998Z,93.16
2018-06-16T01:30:08.984Z,93.35
2018-06-16T01:31:08.905Z,93.16
2018-06-16T01:32:08.858Z,93.16
2018-06-16T01:33:08.840Z,92.49
2018-06-16T01:34:08.765Z,92.21
2018-06-16T01:35:08.720Z,92.30
2018-06-16T01:36:08.702Z,91.73
2018-06-16T01:37:08.628Z,92.02
2018-06-16T01:38:08.577Z,92.11
2018-06-16T01:39:08.533Z,92.02
2018-06-16T01:40:08.484Z,91.83
2018-06-16T01:41:08.476Z,91.63
2018-06-16T01:42:08.395Z,91.73
2018-06-16T01:43:08.344Z,91.83
2018-06-16T01:44:08.298Z,91.92
2018-06-16T01:45:08.250Z,91.92
2018-06-16T01:46:08.237Z,91.73
2018-06-16T01:47:08.157Z,91.92
2018-06-16T01:48:08.112Z,91.25
2018-06-16T01:49:08.064Z,91.06
2018-06-16T01:50:08.050Z,91.63
2018-06-16T01:51:07.970Z,91.73
2018-06-16T01:52:07.925Z,91.73
2018-06-16T01:53:07.878Z,91.63
2018-06-16T01:54:07.829Z,91.92
2018-06-16T01:55:07.824Z,92.30
2018-06-16T01:56:07.738Z,92.21
2018-06-16T01:57:07.692Z,92.30
2018-06-16T01:58:07.646Z,92.40
2018-06-16T01:59:07.597Z,92.69
2018-06-16T02:00:07.601Z,92.97
2018-06-16T02:01:07.506Z,93.35
2018-06-16T02:02:07.458Z,93.64
2018-06-16T02:03:07.412Z,93.74
2018-06-16T02:04:07.370Z,93.35
2018-06-16T02:05:07.361Z,93.26
2018-06-16T02:06:07.275Z,93.35
2018-06-16T02:07:07.227Z,93.07
2018-06-16T02:08:07.181Z,93.16
2018-06-16T02:09:07.132Z,93.16
2018-06-16T02:10:07.121Z,94.12
2018-06-16T02:11:07.039Z,93.84
2018-06-16T02:12:07.025Z,92.97
2018-06-16T02:13:06.945Z,93.16
2018-06-16T02:14:06.901Z,92.69
2018-06-16T02:15:06.851Z,93.07
2018-06-16T02:16:06.805Z,93.16
2018-06-16T02:17:06.791Z,92.88
2018-06-16T02:18:06.712Z,93.45
2018-06-16T02:19:06.665Z,93.07
2018-06-16T02:20:06.621Z,92.97
2018-06-16T02:21:06.607Z,92.69
2018-06-16T02:22:06.569Z,92.78
2018-06-16T02:23:06.480Z,93.16
2018-06-16T02:24:06.433Z,93.64
2018-06-16T02:25:06.386Z,93.07
2018-06-16T02:26:06.340Z,93.45
2018-06-16T02:27:06.336Z,93.07
2018-06-16T02:28:06.244Z,92.88
2018-06-16T02:29:06.201Z,92.78
2018-06-16T02:30:06.153Z,92.97
2018-06-16T02:31:06.107Z,92.78
2018-06-16T02:32:06.110Z,93.45
2018-06-16T02:33:06.015Z,92.88
2018-06-16T02:34:05.966Z,92.78
2018-06-16T02:35:05.919Z,92.97
2018-06-16T02:36:05.872Z,93.07
2018-06-16T02:37:05.858Z,93.35
2018-06-16T02:38:05.780Z,93.35
2018-06-16T02:39:05.778Z,93.26
2018-06-16T02:40:05.690Z,93.55
2018-06-16T02:41:05.638Z,94.02
2018-06-16T02:42:05.593Z,94.02
2018-06-16T02:43:05.545Z,93.84
2018-06-16T02:44:05.539Z,93.74
2018-06-16T02:45:05.459Z,93.93
2018-06-16T02:46:05.407Z,94.02
2018-06-16T02:47:05.359Z,94.02
2018-06-16T02:48:05.312Z,94.02
2018-06-16T02:49:05.314Z,93.84
2018-06-16T02:50:05.288Z,93.93
2018-06-16T02:51:05.172Z,93.45
2018-06-16T02:52:05.126Z,93.16
2018-06-16T02:53:05.081Z,92.97
2018-06-16T02:54:05.062Z,93.64
2018-06-16T02:55:04.992Z,94.02
2018-06-16T02:56:04.942Z,93.93
2018-06-16T02:57:04.894Z,94.41
2018-06-16T02:58:04.846Z,94.50
2018-06-16T02:59:04.851Z,94.60
2018-06-16T03:00:04.761Z,94.21
2018-06-16T03:01:04.709Z,94.89
2018-06-16T03:02:04.660Z,95.07
2018-06-16T03:03:04.614Z,95.07
2018-06-16T03:04:04.600Z,95.17
2018-06-16T03:05:04.519Z,94.84
2018-06-16T03:06:04.513Z,95.03
2018-06-16T03:07:04.427Z,95.36
2018-06-16T03:08:04.379Z,95.70
2018-06-16T03:09:04.337Z,95.03
2018-06-16T03:10:04.317Z,95.65
2018-06-16T03:11:04.238Z,95.46
2018-06-16T03:12:04.225Z,95.51
2018-06-16T03:13:04.150Z,95.22
2018-06-16T03:14:04.132Z,94.89
2018-06-16T03:15:04.064Z,95.32
2018-06-16T03:16:04.008Z,95.27
2018-06-16T03:17:03.965Z,95.07
2018-06-16T03:18:03.912Z,95.36
2018-06-16T03:19:03.897Z,95.17
2018-06-16T03:20:03.828Z,95.07
2018-06-16T03:21:03.808Z,95.07
2018-06-16T03:22:03.727Z,95.22
2018-06-16T03:23:03.678Z,95.27
2018-06-16T03:24:03.666Z,95.65
2018-06-16T03:25:03.586Z,95.41
2018-06-16T03:26:03.540Z,95.70
2018-06-16T03:27:03.501Z,96.47
2018-06-16T03:28:03.484Z,96.56
2018-06-16T03:29:03.399Z,95.94
2018-06-16T03:30:03.352Z,96.08
2018-06-16T03:31:03.332Z,95.51
2018-06-16T03:32:03.268Z,96.03
2018-06-16T03:33:03.242Z,95.94
2018-06-16T03:34:03.170Z,95.98
2018-06-16T03:35:03.150Z,95.51
2018-06-16T03:36:03.071Z,95.65
2018-06-16T03:37:03.025Z,95.70
2018-06-16T03:38:03.009Z,95.22
2018-06-16T03:39:02.931Z,95.46
2018-06-16T03:40:02.917Z,95.70
2018-06-16T03:41:02.843Z,95.94
2018-06-16T03:42:02.792Z,95.94
2018-06-16T03:43:02.748Z,95.75
2018-06-16T03:44:02.697Z,95.75
2018-06-16T03:45:02.685Z,95.61
2018-06-16T03:46:02.606Z,94.89
2018-06-16T03:47:02.556Z,95.17
2018-06-16T03:48:02.511Z,95.46
2018-06-16T03:49:02.467Z,94.98
2018-06-16T03:50:02.457Z,95.17
2018-06-16T03:51:02.370Z,94.89
2018-06-16T03:52:02.329Z,95.65
2018-06-16T03:53:02.282Z,95.36
2018-06-16T03:54:02.232Z,95.84
2018-06-16T03:55:02.221Z,95.27
2018-06-16T03:56:02.139Z,94.98
2018-06-16T03:57:02.090Z,95.84
2018-06-16T03:58:02.043Z,95.94
2018-06-16T03:59:01.996Z,95.36
2018-06-16T04:00:01.993Z,95.56
2018-06-16T04:01:01.903Z,95.94
2018-06-16T04:02:01.855Z,96.03
2018-06-16T04:03:01.810Z,95.94
2018-06-16T04:04:01.769Z,95.94
2018-06-16T04:05:01.750Z,96.03
2018-06-16T04:06:01.700Z,96.32
2018-06-16T04:07:01.625Z,96.51
2018-06-16T04:08:01.580Z,96.61
2018-06-16T04:09:01.531Z,96.22
2018-06-16T04:10:01.485Z,96.32
2018-06-16T04:11:01.471Z,96.42
2018-06-16T04:12:01.391Z,96.32
2018-06-16T04:13:01.374Z,96.51
2018-06-16T04:14:01.295Z,95.94
2018-06-16T04:15:01.250Z,96.32
2018-06-16T04:16:01.202Z,96.51
2018-06-16T04:17:01.190Z,96.32
2018-06-16T04:18:01.108Z,96.03
2018-06-16T04:19:01.061Z,96.22
2018-06-16T04:20:01.060Z,96.32
2018-06-16T04:21:00.968Z,96.32
2018-06-16T04:22:00.918Z,95.94
2018-06-16T04:23:00.874Z,96.13
2018-06-16T04:24:00.878Z,96.13
2018-06-16T04:25:00.812Z,95.98
2018-06-16T04:26:00.742Z,94.79
2018-06-16T04:27:00.690Z,95.12
2018-06-16T04:28:00.645Z,95.70
2018-06-16T04:29:00.627Z,95.61
2018-06-16T04:30:00.547Z,94.93
2018-06-16T04:31:00.501Z,94.84
2018-06-16T04:32:00.486Z,94.93
2018-06-16T04:33:00.470Z,94.84
2018-06-16T04:34:00.362Z,94.84
2018-06-16T04:35:00.348Z,94.65
2018-06-16T04:36:00.269Z,94.45
2018-06-16T04:37:00.221Z,94.45
2018-06-16T04:38:00.209Z,94.55
2018-06-16T04:39:00.129Z,94.45
2018-06-16T04:40:00.087Z,94.55
2018-06-16T04:41:00.041Z,95.22
2018-06-16T04:42:00.031Z,94.74
2018-06-16T04:42:59.944Z,94.93
2018-06-16T04:43:59.896Z,95.17
2018-06-16T04:44:59.850Z,95.84
2018-06-16T04:45:59.837Z,95.84
2018-06-16T04:46:59.793Z,94.65
2018-06-16T04:47:59.711Z,95.94
2018-06-16T04:48:59.664Z,95.84
2018-06-16T04:49:59.622Z,95.84
2018-06-16T04:50:59.578Z,95.07
2018-06-16T04:51:59.558Z,95.17
2018-06-16T04:52:59.479Z,95.46
2018-06-16T04:53:59.435Z,95.17
2018-06-16T04:54:59.386Z,95.07
2018-06-16T04:55:59.372Z,94.69
2018-06-16T04:56:59.323Z,94.98
2018-06-16T04:57:59.249Z,95.07
2018-06-16T04:58:59.209Z,95.36
2018-06-16T04:59:59.158Z,95.27
2018-06-16T05:00:59.143Z,94.60
2018-06-16T05:01:59.067Z,94.79
2018-06-16T05:02:59.020Z,94.60
2018-06-16T05:03:59.022Z,94.60
2018-06-16T05:04:58.926Z,95.36
2018-06-16T05:05:58.882Z,94.79
2018-06-16T05:06:58.832Z,95.07
2018-06-16T05:07:58.789Z,94.50
2018-06-16T05:08:58.777Z,94.40
2018-06-16T05:09:58.696Z,94.21
2018-06-16T05:10:58.647Z,94.12
2018-06-16T05:11:58.608Z,94.17
2018-06-16T05:12:58.607Z,94.21
2018-06-16T05:13:58.511Z,93.64
2018-06-16T05:14:58.465Z,93.74
2018-06-16T05:15:58.421Z,94.12
2018-06-16T05:16:58.392Z,94.07
2018-06-16T05:17:58.410Z,93.59
2018-06-16T05:18:58.325Z,93.30
2018-06-16T05:19:58.235Z,93.40
2018-06-16T05:20:58.191Z,93.11
2018-06-16T05:21:58.185Z,93.49
2018-06-16T05:22:58.100Z,93.59
2018-06-16T05:23:58.088Z,93.59
2018-06-16T05:24:58.006Z,93.40
2018-06-16T05:25:57.961Z,93.78
2018-06-16T05:26:57.949Z,93.78
2018-06-16T05:27:57.869Z,93.59
2018-06-16T05:28:57.823Z,93.21
2018-06-16T05:29:57.776Z,93.11
2018-06-16T05:30:57.734Z,92.63
2018-06-16T05:31:57.721Z,93.02
2018-06-16T05:32:57.642Z,93.30
2018-06-16T05:33:57.593Z,93.21
2018-06-16T05:34:57.549Z,93.40
2018-06-16T05:35:57.503Z,92.35
2018-06-16T05:36:57.488Z,92.54
2018-06-16T05:37:57.419Z,92.15
2018-06-16T05:38:57.397Z,92.06
2018-06-16T05:39:57.320Z,91.63
2018-06-16T05:40:57.274Z,92.10
2018-06-16T05:41:57.245Z,91.19
2018-06-16T05:42:57.190Z,91.63
2018-06-16T05:43:57.186Z,91.72
2018-06-16T05:44:57.092Z,91.53
2018-06-16T05:45:57.048Z,91.63
2018-06-16T05:46:57.001Z,91.53
2018-06-16T05:47:56.956Z,90.95
2018-06-16T05:48:56.941Z,90.95
2018-06-16T05:49:56.874Z,91.72
2018-06-16T05:50:56.820Z,91.24
2018-06-16T05:51:56.772Z,91.63
2018-06-16T05:52:56.751Z,91.14
2018-06-16T05:53:56.742Z,91.34
2018-06-16T05:54:56.640Z,91.43
2018-06-16T05:55:56.590Z,91.53
2018-06-16T05:56:56.580Z,91.14
2018-06-16T05:57:56.500Z,91.82
2018-06-16T05:58:56.485Z,91.00
2018-06-16T05:59:56.411Z,90.81
2018-06-16T06:00:56.396Z,91.19
2018-06-16T06:01:56.363Z,90.81
2018-06-16T06:02:56.322Z,90.81
2018-06-16T06:03:56.273Z,90.81
2018-06-16T06:04:56.187Z,90.81
2018-06-16T06:05:56.139Z,90.90
2018-06-16T06:06:56.133Z,90.81
2018-06-16T06:07:56.050Z,90.23
2018-06-16T06:08:56.005Z,90.81
2018-06-16T06:09:55.960Z,90.61
2018-06-16T06:10:55.915Z,90.90
2018-06-16T06:11:55.923Z,90.71
2018-06-16T06:12:55.824Z,90.75
2018-06-16T06:13:55.783Z,90.85
2018-06-16T06:14:55.737Z,90.75
2018-06-16T06:15:55.688Z,90.85
2018-06-16T06:16:55.680Z,90.85
2018-06-16T06:17:55.598Z,91.05
2018-06-16T06:18:55.553Z,90.47
2018-06-16T06:19:55.508Z,90.47
2018-06-16T06:20:55.464Z,90.28
2018-06-16T06:21:55.451Z,89.70
2018-06-16T06:22:55.375Z,90.28
2018-06-16T06:23:55.330Z,90.52
2018-06-16T06:24:55.286Z,90.22
2018-06-16T06:25:55.271Z,90.13
2018-06-16T06:26:55.200Z,90.22
2018-06-16T06:27:55.152Z,89.84
2018-06-16T06:28:55.155Z,89.94
2018-06-16T06:29:55.062Z,89.65
2018-06-16T06:30:55.017Z,89.84
2018-06-16T06:31:54.975Z,89.55
2018-06-16T06:32:54.925Z,89.75
2018-06-16T06:33:54.915Z,89.07
2018-06-16T06:34:54.872Z,89.17
2018-06-16T06:35:54.797Z,89.07
2018-06-16T06:36:54.789Z,89.02
2018-06-16T06:37:54.704Z,88.54
2018-06-16T06:38:54.662Z,88.83
2018-06-16T06:39:54.616Z,88.73
2018-06-16T06:40:54.572Z,88.06
2018-06-16T06:41:54.577Z,88.06
2018-06-16T06:42:54.485Z,88.16
2018-06-16T06:43:54.443Z,88.16
2018-06-16T06:44:54.397Z,87.96
2018-06-16T06:45:54.352Z,88.25
2018-06-16T06:46:54.351Z,87.77
2018-06-16T06:47:54.262Z,88.06
2018-06-16T06:48:54.233Z,87.72
2018-06-16T06:49:54.176Z,87.34
2018-06-16T06:50:54.129Z,87.43
2018-06-16T06:51:54.119Z,87.82
2018-06-16T06:52:54.043Z,87.43
2018-06-16T06:53:53.999Z,87.15
2018-06-16T06:54:53.992Z,87.05
2018-06-16T06:55:53.911Z,86.85
2018-06-16T06:56:53.867Z,87.62
2018-06-16T06:57:53.901Z,87.43
2018-06-16T06:58:53.782Z,87.43
2018-06-16T06:59:53.737Z,86.85
2018-06-16T07:00:53.689Z,86.71
2018-06-16T07:01:53.679Z,86.99
2018-06-16T07:02:53.603Z,86.71
2018-06-16T07:03:53.618Z,86.42
2018-06-16T07:04:53.519Z,86.32
2018-06-16T07:05:53.475Z,85.36
2018-06-16T07:06:53.476Z,86.52
2018-06-16T07:07:53.387Z,86.04
2018-06-16T07:08:53.341Z,86.04
2018-06-16T07:09:53.299Z,85.27
2018-06-16T07:10:53.309Z,86.04
2018-06-16T07:11:53.266Z,84.92
2018-06-16T07:12:53.172Z,84.73
2018-06-16T07:13:53.122Z,84.73
2018-06-16T07:14:53.081Z,84.63
2018-06-16T07:15:53.040Z,84.34
2018-06-16T07:16:53.029Z,83.67
2018-06-16T07:17:52.951Z,83.86
2018-06-16T07:18:52.949Z,84.54
2018-06-16T07:19:52.864Z,84.58
2018-06-16T07:20:52.821Z,84.48
2018-06-16T07:21:52.778Z,83.91
2018-06-16T07:22:52.733Z,82.46
2018-06-16T07:23:52.730Z,81.70
2018-06-16T07:24:52.659Z,81.70
2018-06-16T07:25:52.607Z,81.50
2018-06-16T07:26:52.565Z,77.46
2018-06-16T07:27:52.520Z,76.78
2018-06-16T07:28:52.512Z,76.88
2018-06-16T07:29:52.434Z,76.78
2018-06-16T07:30:52.391Z,76.78
2018-06-16T07:31:52.350Z,76.21
2018-06-16T07:32:52.345Z,75.44
2018-06-16T07:33:52.264Z,75.34
2018-06-16T07:34:52.220Z,73.13
2018-06-16T07:35:52.218Z,75.05
2018-06-16T07:36:52.134Z,74.86
2018-06-16T07:37:52.092Z,75.15
2018-06-16T07:38:52.092Z,73.80
2018-06-16T07:39:52.015Z,73.61
2018-06-16T07:40:52.003Z,73.77
2018-06-16T07:41:51.922Z,73.96
2018-06-16T07:42:51.880Z,73.67
2018-06-16T07:43:51.847Z,74.25
2018-06-16T07:44:51.792Z,73.67
2018-06-16T07:45:51.783Z,73.96
2018-06-16T07:46:51.742Z,74.34
2018-06-16T07:47:51.670Z,73.77
2018-06-16T07:48:51.631Z,74.73
2018-06-16T07:49:51.580Z,74.92
2018-06-16T07:50:51.539Z,74.82
2018-06-16T07:51:51.529Z,75.59
2018-06-16T07:52:51.493Z,76.01
2018-06-16T07:53:51.419Z,75.24
2018-06-16T07:54:51.368Z,74.48
2018-06-16T07:55:51.344Z,72.65
2018-06-16T07:56:51.341Z,72.45
2018-06-16T07:57:51.279Z,73.42
2018-06-16T07:58:51.203Z,72.94
2018-06-16T07:59:51.158Z,73.71
2018-06-16T08:00:51.113Z,73.42
2018-06-16T08:01:51.074Z,73.13
2018-06-16T08:02:51.114Z,72.84
2018-06-16T08:03:50.988Z,73.99
2018-06-16T08:04:50.941Z,73.51
2018-06-16T08:05:50.909Z,74.19
2018-06-16T08:06:50.859Z,74.48
2018-06-16T08:07:50.847Z,74.29
2018-06-16T08:08:50.771Z,74.19
2018-06-16T08:09:50.729Z,73.51
2018-06-16T08:10:50.731Z,72.71
2018-06-16T08:11:50.644Z,74.25
2018-06-16T08:12:50.646Z,73.38
2018-06-16T08:13:50.557Z,73.90
2018-06-16T08:14:50.514Z,74.29
2018-06-16T08:15:50.508Z,75.54
2018-06-16T08:16:50.431Z,73.99
2018-06-16T08:17:50.412Z,74.86
2018-06-16T08:18:50.345Z,75.34
2018-06-16T08:19:50.333Z,75.34
2018-06-16T08:20:50.258Z,74.19
2018-06-16T08:21:50.224Z,73.61
2018-06-16T08:22:50.208Z,74.09
2018-06-16T08:23:50.131Z,74.38
2018-06-16T08:24:50.125Z,74.29
2018-06-16T08:25:50.049Z,74.09
2018-06-16T08:26:50.002Z,73.22
2018-06-16T08:27:49.961Z,73.13
2018-06-16T08:28:49.957Z,74.48
2018-06-16T08:29:49.873Z,74.38
2018-06-16T08:30:49.832Z,74.80
2018-06-16T08:31:49.793Z,74.61
2018-06-16T08:32:49.747Z,74.41
2018-06-16T08:33:49.735Z,73.16
2018-06-16T08:34:49.803Z,73.22
2018-06-16T08:35:49.620Z,72.65
2018-06-16T08:36:49.577Z,73.36
2018-06-16T08:37:49.536Z,73.65
2018-06-16T08:38:49.530Z,73.74
2018-06-16T08:39:49.449Z,73.74
2018-06-16T08:40:49.405Z,74.03
2018-06-16T08:41:49.394Z,73.65
2018-06-16T08:42:49.322Z,73.07
2018-06-16T08:43:49.281Z,73.30
2018-06-16T08:44:49.239Z,72.01
2018-06-16T08:45:49.230Z,71.91
2018-06-16T08:46:49.150Z,72.39
2018-06-16T08:47:49.108Z,73.26
2018-06-16T08:48:49.065Z,73.26
2018-06-16T08:49:49.024Z,72.68
2018-06-16T08:50:49.020Z,73.01
2018-06-16T08:51:48.945Z,73.01
2018-06-16T08:52:48.897Z,72.97
2018-06-16T08:53:49.612Z,72.53
2018-06-16T08:54:48.837Z,72.24
2018-06-16T08:55:48.805Z,72.05
2018-06-16T08:56:48.730Z,72.72
2018-06-16T08:57:48.716Z,71.95
2018-06-16T08:58:48.644Z,72.05
2018-06-16T08:59:48.635Z,71.28
2018-06-16T09:00:48.560Z,71.08
2018-06-16T09:01:48.515Z,71.02
2018-06-16T09:02:48.511Z,71.60
2018-06-16T09:03:48.434Z,70.44
2018-06-16T09:04:48.390Z,70.83
2018-06-16T09:05:48.349Z,70.64
2018-06-16T09:06:48.357Z,71.70
2018-06-16T09:07:48.265Z,71.12
2018-06-16T09:08:48.228Z,70.64
2018-06-16T09:09:48.183Z,70.54
2018-06-16T09:10:48.140Z,69.77
2018-06-16T09:11:48.130Z,69.61
2018-06-16T09:12:48.056Z,69.03
2018-06-16T09:13:48.016Z,69.61
2018-06-16T09:14:47.994Z,69.80
2018-06-16T09:15:47.968Z,68.35
2018-06-16T09:16:47.892Z,68.35
2018-06-16T09:17:47.849Z,67.78
2018-06-16T09:18:47.814Z,67.40
2018-06-16T09:19:47.765Z,67.10
2018-06-16T09:20:47.753Z,67.07
2018-06-16T09:21:47.682Z,67.16
2018-06-16T09:22:47.642Z,66.11
2018-06-16T09:23:47.602Z,67.30
2018-06-16T09:24:47.558Z,66.82
2018-06-16T09:25:47.549Z,66.33
2018-06-16T09:26:47.479Z,66.04
2018-06-16T09:27:47.436Z,66.91
2018-06-16T09:28:47.395Z,65.17
2018-06-16T09:29:47.384Z,65.85
2018-06-16T09:30:47.340Z,67.20
2018-06-16T09:31:47.381Z,67.58
2018-06-16T09:32:47.230Z,66.52
2018-06-16T09:33:47.190Z,65.47
2018-06-16T09:34:47.147Z,65.66
2018-06-16T09:35:47.109Z,65.08
2018-06-16T09:36:47.107Z,64.02
2018-06-16T09:37:47.022Z,64.40
2018-06-16T09:38:46.989Z,63.67
2018-06-16T09:39:46.943Z,64.43
2018-06-16T09:40:46.900Z,63.67
2018-06-16T09:41:46.911Z,64.34
2018-06-16T09:42:46.820Z,64.72
2018-06-16T09:43:46.781Z,64.28
2018-06-16T09:44:46.736Z,63.12
2018-06-16T09:45:46.701Z,61.77
2018-06-16T09:46:46.708Z,62.44
2018-06-16T09:47:46.621Z,63.31
2018-06-16T09:48:46.572Z,64.56
2018-06-16T09:49:46.533Z,64.31
2018-06-16T09:50:46.492Z,63.73
2018-06-16T09:51:46.489Z,63.28
2018-06-16T09:52:46.411Z,63.47
2018-06-16T09:53:46.371Z,64.53
2018-06-16T09:54:46.331Z,64.53
2018-06-16T09:55:46.329Z,62.89
2018-06-16T09:56:46.256Z,62.05
2018-06-16T09:57:46.212Z,60.86
2018-06-16T09:58:46.169Z,62.02
2018-06-16T09:59:46.173Z,62.21
2018-06-16T10:00:46.089Z,62.70
2018-06-16T10:01:46.055Z,61.83
2018-06-16T10:02:46.012Z,62.05
2018-06-16T10:03:45.973Z,62.24
2018-06-16T10:04:45.963Z,61.76
2018-06-16T10:05:45.891Z,60.21
2018-06-16T10:06:45.884Z,60.89
2018-06-16T10:07:45.811Z,61.37
2018-06-16T10:08:45.772Z,60.34
2018-06-16T10:09:45.729Z,60.14
2018-06-16T10:10:45.723Z,59.28
2018-06-16T10:11:45.650Z,59.59
2018-06-16T10:12:45.613Z,60.75
2018-06-16T10:13:45.570Z,59.79
2018-06-16T10:14:45.566Z,59.59
2018-06-16T10:15:45.492Z,59.11
2018-06-16T10:16:45.487Z,59.11
2018-06-16T10:17:45.412Z,58.07
2018-06-16T10:18:45.374Z,58.07
2018-06-16T10:19:45.332Z,59.05
2018-06-16T10:20:45.327Z,58.37
2018-06-16T10:21:45.291Z,57.50
2018-06-16T10:22:45.219Z,58.24
2018-06-16T10:23:45.178Z,58.14
2018-06-16T10:24:45.135Z,58.60
2018-06-16T10:25:45.097Z,58.86
2018-06-16T10:26:45.089Z,60.57
2018-06-16T10:27:45.026Z,61.44
2018-06-16T10:28:44.977Z,61.34
2018-06-16T10:29:44.938Z,61.25
2018-06-16T10:30:44.903Z,61.12
2018-06-16T10:31:44.894Z,61.92
2018-06-16T10:32:44.857Z,62.02
2018-06-16T10:33:44.778Z,61.12
2018-06-16T10:34:44.742Z,61.44
2018-06-16T10:35:44.703Z,61.92
2018-06-16T10:36:44.661Z,61.83
2018-06-16T10:37:44.664Z,61.44
2018-06-16T10:38:44.581Z,60.28
2018-06-16T10:39:44.544Z,60.86
2018-06-16T10:40:44.504Z,60.76
2018-06-16T10:41:44.463Z,60.28
2018-06-16T10:42:44.457Z,59.60
2018-06-16T10:43:44.423Z,60.28
2018-06-16T10:44:44.344Z,61.05
2018-06-16T10:45:44.308Z,61.54
2018-06-16T10:46:44.265Z,61.92
2018-06-16T10:47:44.225Z,60.28
2018-06-16T10:48:44.223Z,59.70
2018-06-16T10:49:44.143Z,60.18
2018-06-16T10:50:44.105Z,59.89
2018-06-16T10:51:44.064Z,59.22
2018-06-16T10:52:44.024Z,59.80
2018-06-16T10:53:44.024Z,59.99
2018-06-16T10:54:43.948Z,60.11
2018-06-16T10:55:43.908Z,60.57
2018-06-16T10:56:43.866Z,59.02
2018-06-16T10:57:43.824Z,59.67
2018-06-16T10:58:43.820Z,59.38
2018-06-16T10:59:43.746Z,60.06
2018-06-16T11:00:43.706Z,59.51
2018-06-16T11:01:43.668Z,59.02
2018-06-16T11:02:43.626Z,57.38
2018-06-16T11:03:43.628Z,56.13
2018-06-16T11:04:43.546Z,56.71
2018-06-16T11:05:43.540Z,55.62
2018-06-16T11:06:43.469Z,57.87
2018-06-16T11:07:43.427Z,57.03
2018-06-16T11:08:43.387Z,56.25
2018-06-16T11:09:43.392Z,55.79
2018-06-16T11:10:43.310Z,56.57
2018-06-16T11:11:43.276Z,55.53
2018-06-16T11:12:43.230Z,56.21
2018-06-16T11:13:43.188Z,56.24
2018-06-16T11:14:43.188Z,55.36
2018-06-16T11:15:43.161Z,53.99
2018-06-16T11:16:43.070Z,55.41
2018-06-16T11:17:43.030Z,56.28
2018-06-16T11:18:42.999Z,55.99
2018-06-16T11:19:42.954Z,57.44
2018-06-16T11:20:42.957Z,55.34
2018-06-16T11:21:42.873Z,55.05
2018-06-16T11:22:42.836Z,53.59
2018-06-16T11:23:42.795Z,53.53
2018-06-16T11:24:42.758Z,54.30
2018-06-16T11:25:42.759Z,53.23
2018-06-16T11:26:42.676Z,52.20
2018-06-16T11:27:42.641Z,51.81
2018-06-16T11:28:42.598Z,52.71
2018-06-16T11:29:42.566Z,50.67
2018-06-16T11:30:42.565Z,50.87
2018-06-16T11:31:42.480Z,51.54
2018-06-16T11:32:42.437Z,50.67
2018-06-16T11:33:42.404Z,50.96
2018-06-16T11:34:42.359Z,52.34
2018-06-16T11:35:42.354Z,51.67
2018-06-16T11:36:42.288Z,50.99
2018-06-16T11:37:42.247Z,51.40
2018-06-16T11:38:42.250Z,52.08
2018-06-16T11:39:42.201Z,50.72
2018-06-16T11:40:42.129Z,50.41
2018-06-16T11:41:42.129Z,50.99
2018-06-16T11:42:42.051Z,51.67
2018-06-16T11:43:42.013Z,50.60
2018-06-16T11:44:41.993Z,51.98
2018-06-16T11:45:41.933Z,50.94
2018-06-16T11:46:42.059Z,49.87
2018-06-16T11:47:41.856Z,48.69
2018-06-16T11:48:41.876Z,48.78
2018-06-16T11:49:41.783Z,48.97
2018-06-16T11:50:41.743Z,48.59
2018-06-16T11:51:41.734Z,48.71
2018-06-16T11:52:41.671Z,48.42
2018-06-16T11:53:41.627Z,47.96
2018-06-16T11:54:41.589Z,47.66
2018-06-16T11:55:41.584Z,47.08
2018-06-16T11:56:41.511Z,47.08
2018-06-16T11:57:41.533Z,47.28
2018-06-16T11:58:41.461Z,47.96
2018-06-16T11:59:41.397Z,46.31
2018-06-16T12:00:41.396Z,46.50
2018-06-16T12:01:41.322Z,46.79
2018-06-16T12:02:41.284Z,47.38
2018-06-16T12:03:41.248Z,47.66
2018-06-16T12:04:41.242Z,47.86
2018-06-16T12:05:41.173Z,45.94
2018-06-16T12:06:41.164Z,45.92
2018-06-16T12:07:41.091Z,46.11
2018-06-16T12:08:41.056Z,46.89
2018-06-16T12:09:41.051Z,46.11
2018-06-16T12:10:40.981Z,45.89
2018-06-16T12:11:40.946Z,47.62
2018-06-16T12:12:40.937Z,48.76
2018-06-16T12:13:40.874Z,48.37
2018-06-16T12:14:40.876Z,47.11
2018-06-16T12:15:40.792Z,46.62
2018-06-16T12:16:40.760Z,47.69
2018-06-16T12:17:40.719Z,47.40
2018-06-16T12:18:40.679Z,47.98
2018-06-16T12:19:40.673Z,47.72
2018-06-16T12:20:40.601Z,47.62
2018-06-16T12:21:40.567Z,46.26
2018-06-16T12:22:40.524Z,46.28
2018-06-16T12:23:40.494Z,44.83
2018-06-16T12:24:40.524Z,44.95
2018-06-16T12:25:40.411Z,45.04
2018-06-16T12:26:40.377Z,44.34
2018-06-16T12:27:40.338Z,44.90
2018-06-16T12:28:40.316Z,45.78
2018-06-16T12:29:40.371Z,44.01
2018-06-16T12:30:40.225Z,44.32
2018-06-16T12:31:40.191Z,45.00
2018-06-16T12:32:40.154Z,44.51
2018-06-16T12:33:40.112Z,44.68
2018-06-16T12:34:40.100Z,43.04
2018-06-16T12:35:40.057Z,43.50
2018-06-16T12:36:39.992Z,43.60
2018-06-16T12:37:39.986Z,43.99
2018-06-16T12:38:39.919Z,45.73
2018-06-16T12:39:39.878Z,44.09
2018-06-16T12:40:39.886Z,44.47
2018-06-16T12:41:39.801Z,44.47
2018-06-16T12:42:39.763Z,46.22
2018-06-16T12:43:39.728Z,47.11
2018-06-16T12:44:39.751Z,45.75
2018-06-16T12:45:39.681Z,46.26
2018-06-16T12:46:39.610Z,44.51
2018-06-16T12:47:39.572Z,44.83
2018-06-16T12:48:39.567Z,44.34
2018-06-16T12:49:39.498Z,44.44
2018-06-16T12:50:39.459Z,44.85
2018-06-16T12:51:39.422Z,43.88